Englewood, CO (80110)

3:59 PM MDT on September 01, 2015 (GMT -0600)
South Broadway Heights | | Change Station
CLOSE
Current Station
Personal Weather Station
Location: Englewood, CO
Elevation: 5387 ft
Nearby Weather Stations

Elev 5387 ft 39.65 °N, 104.98 °W | Updated 5 minutes ago

Partly Cloudy
Partly Cloudy
88.9 °F
Feels Like 85 °F
N
0.0
Wind Variable Wind from ESE
Gusts 0.0 mph

Today
High -- | Low -- °F
--% Chance of Precip.
Yesterday
High -- | Low -- °F
Precip. -- in
6:27 AM 7:31 PM
Waning Gibbous, 86% visible
Pressure 29.86 in
Visibility 10.0 miles
Clouds Scattered Clouds 10000 ft
Mostly Cloudy 25000 ft
Heat Index 85 °F
Dew Point 43 °F
Humidity 20%
Rainfall 0.00 in
Snow Depth Not available.
UV 3 out of 12
Pollen 9.90 out of 12
Air Quality Not available.
Flu Activity Not available.
METAR KAPA 012153Z VRB04KT 10SM SCT100 BKN250 29/02 A3009 RMK AO2 SLP110 VIRGA DSNT SW-NW CB DSNT SW AND NW MOV NE T02940022
Pressure 29.86 in
Visibility 10.0 miles
Clouds Scattered Clouds 10000 ft
Mostly Cloudy 25000 ft
Heat Index 85 °F
Dew Point 43 °F
Humidity 20%
Rainfall 0.00 in
Snow Depth Not available.
UV 3 out of 12
Pollen 9.90 out of 12
Air Quality Not available.
Flu Activity Not available.
METAR KAPA 012153Z VRB04KT 10SM SCT100 BKN250 29/02 A3009 RMK AO2 SLP110 VIRGA DSNT SW-NW CB DSNT SW AND NW MOV NE T02940022

10-Day Weather Forecast

×

Almanac

Astronomy

Sep. 01, 2015 Rise Set
Actual Time
Civil Twilight
Nautical Twilight
Astronomical Twilight
Moon
Length of Visible Light
Length of Day
Tomorrow will be .
, % of the Moon is Illuminated

Today's Extremes

State Highs State Lows

Community

WunderPhotos

Upload Photos

1,851,628 photos uploaded!

WunderBlogs® & News

Nearby

Air Quality

  Air Quality AQ Index Pollutant
Not available.

Snow Depth

Station Depth Elevation

Earthquake Activity

City Distance Mag. Time & Date
Minimum magnitude displayed is 2.5.

Coastal Water Temperatures

Place Temperature

Stations

Nearby Weather Stations

Station Location Temp. Windchill Dew Point Humidity Wind Precip. Elev Updated Type